Leo Star I — ELXC6 — position and weather

sailwx.info

Track history (hours):
 
Tides and Currents Weather Stations Pressure Air Temp Water Temp Dewpoint Dewpoint Depression Visibility Wind Speed Wind Dir Waves Ship Positions

Leo Star I

Last reported at 2015-May-07 05:09 UTC. Time now 2015-May-25 19:32 UTC.
Position N 33°01' W 009°45'.
Warning: this ship's position is 18 days out of date.

Length 157 m; draft 7.8 m.

Type: Cargo ship. MMSI: 636015065.

Date/timePositionNaut miles runAvg speedWind from/ knotsBaromVisibWave heightAir tempDewpointWater temp
2015-May-07 05:09N 33°01' W 009°45'2412.7
2015-May-07 03:13N 33°19' W 009°24'2712.6
2015-May-07 01:06N 33°38' W 009°02'22412.1
2015-May-06 06:33N 35°59' W 005°30'9 9.4
2015-May-06 05:33N 36°01' W 005°19'10 9.3
2015-May-06 04:31N 36°03' W 005°07'9111.2
2015-May-05 20:22N 36°19' W 003°15'911.0
2015-May-05 19:32N 36°20' W 003°04'1111.0
2015-May-05 18:33N 36°22' W 002°51'3 1.9
2015-May-05 17:12N 36°23' W 002°48'1 1.8
2015-May-05 16:29N 36°23' W 002°50'1 1.4
2015-May-05 15:33N 36°22' W 002°51'7 6.8
2015-May-05 14:33N 36°23' W 002°43'1211.6
2015-May-05 13:33N 36°25' W 002°29'1212.1
2015-May-05 12:33N 36°26' W 002°14'1212.2
2015-May-05 11:33N 36°28' W 001°58'1212.1
2015-May-05 10:33N 36°29' W 001°44'1512.1
2015-May-05 09:20N 36°32' W 001°25'1212.3
2015-May-05 08:21N 36°34' W 001°11'2212.2
2015-May-05 06:34N 36°38' W 000°44'1211.9
2015-May-05 05:32N 36°39' W 000°29'1211.2
2015-May-05 04:27N 36°41' W 000°14'1011.0
2015-May-05 03:33N 36°43' W 000°02'1110.7
2015-May-05 02:34N 36°45' E 000°11'1010.4
2015-May-05 01:33N 36°47' E 000°24'1110.6
2015-May-05 00:33N 36°48' E 000°37'1110.8
2015-May-04 23:33N 36°50' E 000°50'1110.7
2015-May-04 22:33N 36°52' E 001°04'1111.1
2015-May-04 21:33N 36°54' E 001°17'1111.1
2015-May-04 20:33N 36°56' E 001°31'1211.6
2015-May-04 19:34N 36°57' E 001°45'1212.2
2015-May-04 18:33N 36°59' E 002°01'1312.7
2015-May-04 17:33N 37°01' E 002°16'1212.4
2015-May-04 16:33N 37°04' E 002°31'1212.1
2015-May-04 15:33N 37°05' E 002°46'1212.1
2015-May-04 14:33N 37°07' E 003°01'1212.4
2015-May-04 13:33N 37°09' E 003°17'1212.1
2015-May-04 12:33N 37°11' E 003°32'1411.9
2015-May-04 11:21N 37°13' E 003°50'1012.2
2015-May-04 10:33N 37°15' E 004°02'1312.7
2015-May-04 09:33N 37°16' E 004°17'1312.6
2015-May-04 08:33N 37°18' E 004°33'19012.7
2015-May-03 17:33N 37°41' E 008°31'1313.4
2015-May-03 16:33N 37°42' E 008°48'12412.4
2015-May-03 06:32N 37°24' E 011°23'1312.7
2015-May-03 05:32N 37°20' E 011°38'1312.7
2015-May-03 04:33N 37°17' E 011°53'1712.6
2015-May-03 03:14N 37°12' E 012°13'812.5
2015-May-03 02:33N 37°10' E 012°23'1212.4
2015-May-03 01:33N 37°06' E 012°38'1312.4
2015-May-03 00:33N 37°02' E 012°53'1312.8
2015-May-02 23:33N 36°59' E 013°08'1312.7
2015-May-02 22:33N 36°55' E 013°23'1212.4
2015-May-02 21:33N 36°51' E 013°38'1212.2
2015-May-02 20:33N 36°47' E 013°53'1312.6
2015-May-02 19:33N 36°44' E 014°08'1312.7
2015-May-02 18:33N 36°41' E 014°23'1212.3
2015-May-02 17:33N 36°39' E 014°38'1212.5
2015-May-02 16:33N 36°36' E 014°53'1212.1
2015-May-02 15:33N 36°34' E 015°08'1711.8
2015-May-02 14:07N 36°44' E 015°25'2011.7
2015-May-02 12:25N 36°59' E 015°41'17912.5
2015-May-01 22:04N 39°19' E 018°03'612.5
2015-May-01 21:33N 39°24' E 018°08'1312.5
2015-May-01 20:31N 39°35' E 018°18'1212.4
2015-May-01 19:33N 39°44' E 018°28'1312.8
2015-May-01 18:33N 39°56' E 018°35'1312.6
2015-May-01 17:33N 40°08' E 018°36'1212.1
2015-May-01 16:33N 40°20' E 018°32'1312.8
2015-May-01 15:33N 40°30' E 018°21'1312.7
2015-May-01 14:33N 40°39' E 018°10'1513.0
2015-May-01 13:26N 40°49' E 017°56'  
Track history (hours):
 
Tides and Currents Weather Stations Pressure Air Temp Water Temp Dewpoint Dewpoint Depression Visibility Wind Speed Wind Dir Waves Ship Positions

Leo Star I

Last reported at 2015-May-07 05:09 UTC. Time now 2015-May-25 19:32 UTC.
Position N 33°01' W 009°45'.
Warning: this ship's position is 18 days out of date.

Length 157 m; draft 7.8 m.

Type: Cargo ship. MMSI: 636015065.

Date/timePositionNaut miles runAvg speedWind from/ knotsBaromVisibWave heightAir tempDewpointWater temp
2015-May-07 05:09N 33°01' W 009°45'2412.7
2015-May-07 03:13N 33°19' W 009°24'2712.6
2015-May-07 01:06N 33°38' W 009°02'22412.1
2015-May-06 06:33N 35°59' W 005°30'9 9.4
2015-May-06 05:33N 36°01' W 005°19'10 9.3
2015-May-06 04:31N 36°03' W 005°07'9111.2
2015-May-05 20:22N 36°19' W 003°15'911.0
2015-May-05 19:32N 36°20' W 003°04'1111.0
2015-May-05 18:33N 36°22' W 002°51'3 1.9
2015-May-05 17:12N 36°23' W 002°48'1 1.8
2015-May-05 16:29N 36°23' W 002°50'1 1.4
2015-May-05 15:33N 36°22' W 002°51'7 6.8
2015-May-05 14:33N 36°23' W 002°43'1211.6
2015-May-05 13:33N 36°25' W 002°29'1212.1
2015-May-05 12:33N 36°26' W 002°14'1212.2
2015-May-05 11:33N 36°28' W 001°58'1212.1
2015-May-05 10:33N 36°29' W 001°44'1512.1
2015-May-05 09:20N 36°32' W 001°25'1212.3
2015-May-05 08:21N 36°34' W 001°11'2212.2
2015-May-05 06:34N 36°38' W 000°44'1211.9
2015-May-05 05:32N 36°39' W 000°29'1211.2
2015-May-05 04:27N 36°41' W 000°14'1011.0
2015-May-05 03:33N 36°43' W 000°02'1110.7
2015-May-05 02:34N 36°45' E 000°11'1010.4
2015-May-05 01:33N 36°47' E 000°24'1110.6
2015-May-05 00:33N 36°48' E 000°37'1110.8
2015-May-04 23:33N 36°50' E 000°50'1110.7
2015-May-04 22:33N 36°52' E 001°04'1111.1
2015-May-04 21:33N 36°54' E 001°17'1111.1
2015-May-04 20:33N 36°56' E 001°31'1211.6
2015-May-04 19:34N 36°57' E 001°45'1212.2
2015-May-04 18:33N 36°59' E 002°01'1312.7
2015-May-04 17:33N 37°01' E 002°16'1212.4
2015-May-04 16:33N 37°04' E 002°31'1212.1
2015-May-04 15:33N 37°05' E 002°46'1212.1
2015-May-04 14:33N 37°07' E 003°01'1212.4
2015-May-04 13:33N 37°09' E 003°17'1212.1
2015-May-04 12:33N 37°11' E 003°32'1411.9
2015-May-04 11:21N 37°13' E 003°50'1012.2
2015-May-04 10:33N 37°15' E 004°02'1312.7
2015-May-04 09:33N 37°16' E 004°17'1312.6
2015-May-04 08:33N 37°18' E 004°33'19012.7
2015-May-03 17:33N 37°41' E 008°31'1313.4
2015-May-03 16:33N 37°42' E 008°48'12412.4
2015-May-03 06:32N 37°24' E 011°23'1312.7
2015-May-03 05:32N 37°20' E 011°38'1312.7
2015-May-03 04:33N 37°17' E 011°53'1712.6
2015-May-03 03:14N 37°12' E 012°13'812.5
2015-May-03 02:33N 37°10' E 012°23'1212.4
2015-May-03 01:33N 37°06' E 012°38'1312.4
2015-May-03 00:33N 37°02' E 012°53'1312.8
2015-May-02 23:33N 36°59' E 013°08'1312.7
2015-May-02 22:33N 36°55' E 013°23'1212.4
2015-May-02 21:33N 36°51' E 013°38'1212.2
2015-May-02 20:33N 36°47' E 013°53'1312.6
2015-May-02 19:33N 36°44' E 014°08'1312.7
2015-May-02 18:33N 36°41' E 014°23'1212.3
2015-May-02 17:33N 36°39' E 014°38'1212.5
2015-May-02 16:33N 36°36' E 014°53'1212.1
2015-May-02 15:33N 36°34' E 015°08'1711.8
2015-May-02 14:07N 36°44' E 015°25'2011.7
2015-May-02 12:25N 36°59' E 015°41'17912.5
2015-May-01 22:04N 39°19' E 018°03'612.5
2015-May-01 21:33N 39°24' E 018°08'1312.5
2015-May-01 20:31N 39°35' E 018°18'1212.4
2015-May-01 19:33N 39°44' E 018°28'1312.8
2015-May-01 18:33N 39°56' E 018°35'1312.6
2015-May-01 17:33N 40°08' E 018°36'1212.1
2015-May-01 16:33N 40°20' E 018°32'1312.8
2015-May-01 15:33N 40°30' E 018°21'1312.7
2015-May-01 14:33N 40°39' E 018°10'1513.0
2015-May-01 13:26N 40°49' E 017°56'  

Dump ship's entire track history